In Rescue
 
Open Full Screen Window  High Contrast Mode
Wind Gusting 00 knots
06
July 13, 2020 11:25 PM CDT
Weather Information
Wind Direction
  150 °
Wind Speed
  06 kt (7 mph)
Wind Gust
  00 kt (0 mph)
Altimeter
29.75 in
Visibility
10 SM
Temperature
26° C
79° F
Dewpoint
21° C
70° F
Humidity
74%
1hr Rain Fall
00.00 in.
24hr Rain Fall
00.00 in.
Sky Condition
Scattered @ 5,000 ft
VFR

METAR KLJF 140425Z AUTO 15006KT 10SM SCT050 26/21 A2975 RMK AO2

FAA Disclaimer: The data displayed is for advisory purposes only and is not to be used for flight planning or operations.